Terminal Aerodrome Forecast
Issued by NWS

Home | Current Version | Previous Version | Text Only | Print | Product List | Glossary On
Versions: 1 2 3 4 5 6 7 8 9 10 11 12 13 14 15 16 17 18 19 20 21 22 23 24 25 26 27 28 29 30
000
FTUS41 KBOX 081120
TAFACK
TAF
KACK 081120Z 0812/0912 04028G42KT 1SM -SN OVC006
     FM081400 03032G55KT 1/4SM +SN OVC002
     FM081800 02035G59KT 1SM -SN OVC003
     FM082300 02023G42KT 3SM -SN OVC015
     FM090900 01011KT P6SM -SHSN OVC015=

USA.gov is the U.S. government's official web portal to all federal, state and local government web resources and services.